logo tempoitalia

Diretta Meteo Oberlin, Stati Uniti (USA)lunedì 31 agosto ore 01:35

Mappa
Sereno 23 °C Coperto 24 Ore: T.min 19 T.max 34
Ponente Sud-Ovest Km/h 13 Punto di rugiada: 18 °C Umidità: 73% Visibilità: 10 Km
Il sole sorge alle: 07:09 Il sole tramonta alle: 20:15
31 Agosto 2026 01:35 tempo osservato: Coperto Coperto 23 73 1015 vento: Nord SO 13
31 Agosto 2026 01:15 tempo osservato: Pioggia Pioggia 24 69 1014 vento: Nord E/SE 13
31 Agosto 2026 00:55 tempo osservato: Pioggia Pioggia 23 83 1015 vento: Nord N/NO 11.1
31 Agosto 2026 00:35 tempo osservato: Coperto Coperto 24 64 1014 vento: Nord N 5.5
31 Agosto 2026 00:15 tempo osservato: Coperto Coperto 25 57 1014 vento: Nord NO 13
30 Agosto 2026 23:55 tempo osservato: Molto Nuvoloso Molto Nuvoloso 25 61 1014 vento: Nord NO 16.7
30 Agosto 2026 23:35 tempo osservato: Nuvoloso Nuvoloso 24 64 1014 vento: Nord NO 13
30 Agosto 2026 23:15 tempo osservato: Molto Nuvoloso Molto Nuvoloso 24 73 1013 vento: Nord N/NO 16.7
30 Agosto 2026 22:55 tempo osservato: Pioggia Pioggia 25 65 1013 vento: Nord N 18.5
30 Agosto 2026 22:35 tempo osservato: Poco Nuvoloso Poco Nuvoloso 26 61 1014 vento: Nord N/NO 16.7
30 Agosto 2026 22:15 tempo osservato: Sereno Sereno 24 83 1014 vento: Nord N/NO 24
30 Agosto 2026 21:55 tempo osservato: Sereno Sereno 25 73 1013 vento: Nord E/NE 7.4
30 Agosto 2026 21:35 tempo osservato: Sereno Sereno 25 73 1013 vento: Nord E 7.4
30 Agosto 2026 21:15 tempo osservato: Sereno Sereno 25 78 1013 vento: Nord E 7.4
30 Agosto 2026 20:55 tempo osservato: Sereno Sereno 26 69 1012 vento: Nord N 5.5
30 Agosto 2026 20:35 tempo osservato: Sereno Sereno 27 61 1012 vento: Nord E 9.3
30 Agosto 2026 20:15 tempo osservato: Sereno Sereno 28 58 1012 vento: Nord E 9.3
30 Agosto 2026 19:55 tempo osservato: Sereno Sereno 29 58 1012 vento: Nord E 9.3
30 Agosto 2026 19:35 tempo osservato: Sereno Sereno 31 48 1012 vento: Nord N 5.5
30 Agosto 2026 19:15 tempo osservato: Sereno Sereno 33 43 1012 vento: Nord E 7.4
30 Agosto 2026 18:55 tempo osservato: Sereno Sereno 32 46 1012 vento: Nord E 7.4
30 Agosto 2026 18:35 tempo osservato: Sereno Sereno 32 43 1012 vento: Nord E 7.4
30 Agosto 2026 18:15 tempo osservato: Sereno Sereno 32 43 1012 vento: Nord E 7.4
30 Agosto 2026 17:55 tempo osservato: Sereno Sereno 33 36 1012 vento: Nord E 7.4
30 Agosto 2026 17:35 tempo osservato: Sereno Sereno 33 38 1011 vento: Nord E 7.4
30 Agosto 2026 17:15 tempo osservato: Sereno Sereno 34 34 1011 vento: Nord E 9.3
30 Agosto 2026 16:55 tempo osservato: Sereno Sereno 34 34 1011 vento: Nord E/NE 7.4
30 Agosto 2026 16:35 tempo osservato: Sereno Sereno 34 36 1011 vento: Nord E/SE 7.4
30 Agosto 2026 16:15 tempo osservato: Sereno Sereno 34 34 1012 vento: Nord N 5.5
30 Agosto 2026 15:55 tempo osservato: Sereno Sereno 33 36 1012 vento: Nord N 3.7
30 Agosto 2026 15:35 tempo osservato: Sereno Sereno 33 36 1012 vento: Nord N 7.4
30 Agosto 2026 15:15 tempo osservato: Sereno Sereno 33 36 1012 vento: Nord N 3.7
30 Agosto 2026 14:55 tempo osservato: Sereno Sereno 33 36 1012 vento: Nord N 9.3
30 Agosto 2026 14:35 tempo osservato: Pioggia Foschia Pioggia Foschia 33 36 1012 vento: Nord N/NE 9.3
30 Agosto 2026 14:15 tempo osservato: Sereno Sereno 33 36 1012 vento: Nord N/NE 11.1
30 Agosto 2026 13:55 tempo osservato: Sereno Sereno 32 35 1012 vento: Nord N 9.3
30 Agosto 2026 13:35 tempo osservato: Sereno Sereno 32 38 1012 vento: Nord N/NE 13
30 Agosto 2026 13:15 tempo osservato: Sereno Sereno 31 40 1012 vento: Nord N 11.1
30 Agosto 2026 12:55 tempo osservato: Sereno Sereno 31 43 1012 vento: Nord N/NO 14.8
30 Agosto 2026 12:35 tempo osservato: Sereno Sereno 31 43 1013 vento: Nord N 13
30 Agosto 2026 12:15 tempo osservato: Sereno Sereno 30 45 1013 vento: Nord N/NO 13
30 Agosto 2026 11:55 tempo osservato: Sereno Sereno 28 54 1014 vento: Nord O/NO 13
30 Agosto 2026 11:35 tempo osservato: Sereno Sereno 27 65 1014 vento: Nord O/NO 11.1
30 Agosto 2026 11:15 tempo osservato: Sereno Sereno 26 69 1014 vento: Nord NO 13
30 Agosto 2026 10:55 tempo osservato: Sereno Sereno 25 73 1013 vento: Nord NO 13
30 Agosto 2026 10:35 tempo osservato: Pioggia Pioggia 24 78 1012 vento: Nord N 13
30 Agosto 2026 10:15 tempo osservato: Poco Nuvoloso Poco Nuvoloso 24 78 1013 vento: Nord N 5.5
30 Agosto 2026 09:55 tempo osservato: Sereno Sereno 24 73 1013 vento: Nord NO 9.3
30 Agosto 2026 09:35 tempo osservato: Sereno Sereno 25 73 1012 vento: Nord N/NO 16.7
30 Agosto 2026 09:15 tempo osservato: Sereno Sereno 23 83 1012 vento: Nord NO 18.5
30 Agosto 2026 08:55 tempo osservato: Sereno Sereno 21 94 1012 vento: Nord NO 14.8
30 Agosto 2026 08:35 tempo osservato: Sereno Sereno 21 94 1012 vento: Nord NO 20.3
30 Agosto 2026 08:15 tempo osservato: Sereno Sereno 20 100 1012 vento: Nord NO 13
30 Agosto 2026 07:55 tempo osservato: Sereno Sereno 19 100 1011 vento: Nord NO 14.8
30 Agosto 2026 07:35 tempo osservato: Sereno Sereno 19 100 1012 vento: Nord NO 11.1
30 Agosto 2026 07:15 tempo osservato: Sereno Sereno 19 100 1011 vento: Nord O/NO 14.8
30 Agosto 2026 06:55 tempo osservato: Sereno Sereno 19 100 1011 vento: Nord O/NO 14.8
30 Agosto 2026 06:35 tempo osservato: Sereno Sereno 19 100 1011 vento: Nord O/NO 13
30 Agosto 2026 06:15 tempo osservato: Sereno Sereno 19 100 1011 vento: Nord O/NO 13
30 Agosto 2026 05:55 tempo osservato: Sereno Sereno 19 100 1010 vento: Nord NO 13
30 Agosto 2026 05:35 tempo osservato: Sereno Sereno 19 100 1011 vento: Nord NO 14.8
30 Agosto 2026 05:15 tempo osservato: Sereno Sereno 19 100 1011 vento: Nord NO 13
30 Agosto 2026 04:55 tempo osservato: Sereno Sereno 20 100 1011 vento: Nord NO 9.3
30 Agosto 2026 04:35 tempo osservato: Sereno Sereno 19 100 1011 vento: Nord NO 13
30 Agosto 2026 04:15 tempo osservato: Sereno Sereno 19 100 1011 vento: Nord NO 9.3
30 Agosto 2026 03:55 tempo osservato: Sereno Sereno 20 100 1011 vento: Nord NO 11.1
30 Agosto 2026 03:35 tempo osservato: Sereno Sereno 20 100 1011 vento: Nord N/NO 11.1
30 Agosto 2026 03:15 tempo osservato: Sereno Sereno 20 100 1011 vento: Nord N 11.1
30 Agosto 2026 02:55 tempo osservato: Sereno Sereno 21 94 1011 vento: Nord N 7.4
30 Agosto 2026 02:35 tempo osservato: Sereno Sereno 21 94 1011 vento: Nord NE 13
30 Agosto 2026 02:15 tempo osservato: Sereno Sereno 22 83 1011 vento: Nord N/NE 11.1
30 Agosto 2026 01:55 tempo osservato: Sereno Sereno 23 78 1012 vento: Nord N/NE 16.7
30 Agosto 2026 01:35 tempo osservato: Sereno Sereno 24 69 1012 vento: Nord N 24